SBOSBO LOS / DNMM
Speedbird OnlineSpeedbird Online LOS / DNMM

Murtala Muhammed International Airport
00:36 27°C

Location Lagos, Nigeria
Latitude: 6.5773701667785645
Longitude: 3.321160078048706
Web Airport Website | Wikipedia
Altitude 41 Meter / 135 Feet
Distance 5,005 KM / 3,110 Miles
from London.
Time Zone UTC +1 hours (Africa/Lagos)
Codes IATA: LOS
ICAO: DNMM
Currency £1 equals NGN 557.28
Runways
RunwayLength (m)Surface
18L2742Asphalt
18R3900Asphalt
36L3900Asphalt
36R2742Asphalt
Radio
TypeDescriptionFrequency
AFISLAGOS WEST120.9
AFISLAGOS EAST127.3
APPAPP124.3
ATIS123.8
TOWER118.1
Live ATC
METAR DNMM 081400Z 19006KT 9999 BKN016 35/25 Q1010 NOSIG
TAF TAF DNMM 081100Z 0812/0918 22010KT 9999 BKN014 TEMPO 0813/0817 SCT014 FEW020CB BECMG 0817/0819 VRB02KT SCT011 TEMPO 0905/0908 5000 HZ BECMG 0908/0910 24010KT BKN013
Weather As Of 09 Feb 2023 00:36
Description Few clouds
Wind 7 km/h from South-West (220°)
Cloud Cover 20%
Precipitation Rain: none, Snow: none
Sunrise 07:04
Sunset 18:57
Lounges Oasis Executive Lounge , Departure
British Airways Lounge (Open), International
Rotations During the last 90 days there were
87 flights from LHR
87 flights to LHR



Support Speedbird Online

© 2017-2023 Speedbird Online